»·PEaware :: N9229P KAPA-KCYS

N9229P :: KAPA-KCYS

FLIGHT INFORMATION

Flight Status: Arrived
Operator: Privately registered:
United States
More flights under this callsign
Pilot: James W. (24810)
Aircraft: PIPER PA-24 COMMANCHE
(PA24)
More flights by this aircraft type
Origin: KAPA Centennial
United States
Destination: KCYS Cheyenne
United States
More flights between these airports :: More routes between these airports
Route: +YELLO3 CYS EMOTY
File this flight plan on PilotEdge
Remarks:
Altitude:
(Current/Filed)
9,000ft
Speed:
(Current/Filed)
165kts
Departed: 14-Jul-20 05:53 PM
Arrived: 14-Jul-20 06:45 PM
Distance/Time
Traveled:
95nm/0:52
Distance/Time
To Go:
Arrived

Flight Plot

Page will automatically refresh every two minutes.

Flight plan parsing failed; only flown route is shown


Map Options




Map Legend


Flown Route
Filed Route
Departure Airport
Arrival Airport
Navaid (VOR, NDB)
Fix

Horizontal Profiles

Position Reports

Time Latitude Longitude Heading Altitude Ground
Speed
14-Jul-20 17:30 39.582088 -104.849295 274 5886ft 0kts
14-Jul-20 17:32 39.582088 -104.849295 274 5886ft 0kts
14-Jul-20 17:33 39.582088 -104.849295 274 5886ft 0kts
14-Jul-20 17:34 39.582088 -104.849295 274 5886ft 0kts
14-Jul-20 17:34 39.582088 -104.849295 274 5886ft 0kts
14-Jul-20 17:35 39.582088 -104.849295 274 5886ft 0kts
14-Jul-20 17:37 39.582088 -104.849295 274 5886ft 0kts
14-Jul-20 17:37 39.582088 -104.849295 274 5886ft 0kts
14-Jul-20 17:38 39.582088 -104.849295 274 5886ft 0kts
14-Jul-20 17:39 39.582088 -104.849295 274 5886ft 0kts
14-Jul-20 17:40 39.582088 -104.849295 274 5886ft 0kts
14-Jul-20 17:41 39.582088 -104.849295 274 5886ft 0kts
14-Jul-20 17:42 39.582088 -104.849295 274 5886ft 0kts
14-Jul-20 17:43 39.582088 -104.849295 274 5886ft 0kts
14-Jul-20 17:44 39.582088 -104.849295 274 5886ft 0kts
14-Jul-20 17:45 39.582088 -104.849295 274 5886ft 0kts
14-Jul-20 17:46 39.582088 -104.849295 274 5886ft 0kts
14-Jul-20 17:47 39.582088 -104.849295 274 5886ft 0kts
14-Jul-20 17:48 39.583070 -104.850005 1 5886ft 8kts
14-Jul-20 17:49 39.584095 -104.850191 292 5886ft 0kts
14-Jul-20 17:50 39.584095 -104.850191 292 5886ft 0kts
14-Jul-20 17:51 39.583684 -104.851466 178 5886ft 17kts
14-Jul-20 17:52 39.556119 -104.854596 216 6345ft 144kts
14-Jul-20 17:53 39.562454 -104.902002 297 7364ft 150kts
14-Jul-20 17:54 39.582033 -104.949659 297 8365ft 149kts
14-Jul-20 17:55 39.607940 -104.986339 11 9349ft 149kts
14-Jul-20 17:56 39.642806 -104.959545 61 10367ft 145kts
14-Jul-20 17:57 39.667784 -104.918727 51 11359ft 144kts
14-Jul-20 17:58 39.692243 -104.876150 53 12001ft 162kts
14-Jul-20 17:59 39.720689 -104.825239 53 12000ft 180kts
14-Jul-20 18:00 39.750396 -104.772166 53 12000ft 182kts
14-Jul-20 18:01 39.780314 -104.718657 53 11999ft 182kts
14-Jul-20 18:02 39.812230 -104.667206 29 12000ft 182kts
14-Jul-20 18:03 39.862166 -104.664920 356 11999ft 182kts
14-Jul-20 18:04 39.912767 -104.668839 356 11999ft 182kts
14-Jul-20 18:05 39.963364 -104.672844 356 11999ft 182kts
14-Jul-20 18:06 40.014134 -104.676850 356 11999ft 182kts
14-Jul-20 18:07 40.064684 -104.680851 356 11999ft 182kts
14-Jul-20 18:08 40.115293 -104.684843 356 11999ft 182kts
14-Jul-20 18:09 40.166010 -104.688868 356 11999ft 182kts
14-Jul-20 18:10 40.216472 -104.692877 356 11999ft 182kts
14-Jul-20 18:11 40.267190 -104.696912 356 11999ft 182kts
14-Jul-20 18:12 40.317679 -104.700935 356 11999ft 182kts
14-Jul-20 18:13 40.368203 -104.704967 356 11999ft 182kts
14-Jul-20 18:14 40.418941 -104.709023 356 11999ft 182kts
14-Jul-20 18:15 40.469472 -104.713067 356 11999ft 182kts
14-Jul-20 18:16 40.520121 -104.717097 356 11999ft 182kts
14-Jul-20 18:17 40.570707 -104.721314 355 11999ft 182kts
14-Jul-20 18:18 40.621642 -104.725617 356 11820ft 190kts
14-Jul-20 18:19 40.675264 -104.729821 356 11323ft 195kts
14-Jul-20 18:20 40.729526 -104.734134 356 10823ft 196kts
14-Jul-20 18:21 40.783732 -104.738472 356 10322ft 194kts
14-Jul-20 18:22 40.837433 -104.742798 356 9823ft 194kts
14-Jul-20 18:23 40.891169 -104.747137 356 9322ft 193kts
14-Jul-20 18:24 40.944420 -104.751446 356 9000ft 186kts
14-Jul-20 18:25 40.995020 -104.755556 356 8999ft 181kts
14-Jul-20 18:26 41.045152 -104.759629 356 8999ft 180kts
14-Jul-20 18:27 41.095155 -104.763689 356 8999ft 180kts
14-Jul-20 18:28 41.144822 -104.767733 356 8999ft 180kts
14-Jul-20 18:29 41.194874 -104.771854 354 8999ft 180kts
14-Jul-20 18:30 41.227132 -104.817598 295 9000ft 180kts
14-Jul-20 18:31 41.248720 -104.876031 295 8999ft 171kts
14-Jul-20 18:32 41.268971 -104.931230 295 8999ft 162kts
14-Jul-20 18:33 41.287861 -104.982796 295 9000ft 147kts
14-Jul-20 18:34 41.309056 -105.023647 319 8997ft 124kts
14-Jul-20 18:35 41.333126 -105.053164 315 8999ft 114kts
14-Jul-20 18:36 41.355465 -105.082815 314 8999ft 113kts
14-Jul-20 18:37 41.377399 -105.112068 316 8999ft 113kts
14-Jul-20 18:38 41.393153 -105.114537 0 8999ft 0kts
14-Jul-20 18:44 41.158149 -104.811340 277 6156ft 0kts

Navigation Log

Ident Type
Flight plan parsing failed, navigation log unavailable